Time;durP1;ratioP1;P1;durP2;ratioP2;P2;SDS_P1;SDS_P2;PMS_P1;PMS_P2;Temp;Humidity;BMP_temperature;BMP_pressure;BME280_temperature;BME280_humidity;BME280_pressure;Samples;Min_cycle;Max_cycle;Signal;HPM_P1;HPM_P2
2023/10/28 00:00:31;;;;;;;1.92;0.85;;;9.50;99.90;;;;;;5080051;28;20036;-68
2023/10/28 00:02:57;;;;;;;3.08;0.52;;;9.50;99.90;;;;;;5078386;28;20046;-67
2023/10/28 00:05:24;;;;;;;1.55;0.52;;;9.40;99.90;;;;;;5070446;28;20036;-68
2023/10/28 00:07:50;;;;;;;2.50;1.55;;;9.30;99.90;;;;;;5086544;28;20051;-68
2023/10/28 00:10:16;;;;;;;0.90;0.80;;;9.30;99.90;;;;;;5078386;28;20043;-68
2023/10/28 00:12:41;;;;;;;1.77;1.55;;;9.20;99.90;;;;;;5086431;27;20520;-68
2023/10/28 00:15:08;;;;;;;1.17;0.98;;;9.20;99.90;;;;;;5086909;28;20478;-68
2023/10/28 00:17:33;;;;;;;0.30;0.28;;;9.10;99.90;;;;;;5084718;28;20482;-68
2023/10/28 00:20:04;;;;;;;2.70;0.90;;;9.10;99.90;;;;;;5089996;28;20077;-67
2023/10/28 00:22:33;;;;;;;1.33;1.20;;;9.00;99.90;;;;;;5084487;27;20101;-67
2023/10/28 00:24:59;;;;;;;0.80;0.80;;;9.00;99.90;;;;;;5082585;27;20498;-67
2023/10/28 00:27:25;;;;;;;2.13;1.17;;;9.00;99.90;;;;;;5085700;27;20042;-67
2023/10/28 00:29:52;;;;;;;1.80;1.00;;;9.00;99.90;;;;;;5068297;27;20039;-67
2023/10/28 00:32:22;;;;;;;1.10;0.43;;;9.00;99.90;;;;;;5115924;27;20042;-68
2023/10/28 00:34:48;;;;;;;0.50;0.50;;;9.00;99.90;;;;;;5085784;27;20075;-68
2023/10/28 00:37:14;;;;;;;4.47;0.70;;;8.90;99.90;;;;;;5077944;28;20046;-68
2023/10/28 00:39:42;;;;;;;0.32;0.32;;;9.00;99.90;;;;;;5079133;28;20043;-68
2023/10/28 00:42:13;;;;;;;0.30;0.30;;;8.90;99.90;;;;;;5071872;28;20049;-67
2023/10/28 00:44:39;;;;;;;0.60;0.47;;;9.00;99.90;;;;;;5091000;28;20035;-67
2023/10/28 00:47:05;;;;;;;0.40;0.40;;;9.00;99.90;;;;;;5091710;28;20039;-67
2023/10/28 00:49:31;;;;;;;0.32;0.32;;;9.00;99.90;;;;;;5092904;27;20048;-67
2023/10/28 00:51:57;;;;;;;0.85;0.70;;;9.00;99.90;;;;;;5093829;27;20043;-67
2023/10/28 00:54:24;;;;;;;0.30;0.30;;;9.00;99.90;;;;;;5086619;28;20394;-67
2023/10/28 00:56:49;;;;;;;1.05;0.82;;;9.00;99.90;;;;;;5116574;27;20375;-68
2023/10/28 00:59:16;;;;;;;0.63;0.38;;;8.90;99.90;;;;;;5086455;27;20248;-67
2023/10/28 01:01:42;;;;;;;0.35;0.35;;;9.00;99.90;;;;;;5085951;28;20049;-67
2023/10/28 01:04:08;;;;;;;0.40;0.40;;;8.90;99.90;;;;;;5087276;28;20048;-67
2023/10/28 01:06:34;;;;;;;0.30;0.28;;;8.90;99.90;;;;;;5079365;28;20040;-67
2023/10/28 01:08:59;;;;;;;0.65;0.65;;;8.90;99.90;;;;;;5082305;28;20040;-67
2023/10/28 01:11:25;;;;;;;1.63;0.22;;;8.90;99.90;;;;;;5082406;28;20041;-67
2023/10/28 01:13:51;;;;;;;4.00;0.98;;;9.00;99.90;;;;;;5081449;28;20035;-67
2023/10/28 01:16:16;;;;;;;2.33;0.98;;;8.90;99.90;;;;;;5083831;28;20035;-68
2023/10/28 01:18:42;;;;;;;0.40;0.40;;;8.90;99.90;;;;;;5071874;27;20092;-67
2023/10/28 01:21:14;;;;;;;2.28;0.88;;;8.90;99.90;;;;;;5083209;28;20146;-67
2023/10/28 01:23:40;;;;;;;0.28;0.28;;;8.90;99.90;;;;;;5112759;27;20035;-67
2023/10/28 01:26:05;;;;;;;2.00;0.73;;;8.90;99.90;;;;;;5114860;27;20050;-67
2023/10/28 01:28:32;;;;;;;0.85;0.63;;;8.90;99.90;;;;;;5089112;28;20028;-67
2023/10/28 01:30:59;;;;;;;1.13;0.82;;;8.80;99.90;;;;;;5116545;27;20043;-67
2023/10/28 01:33:25;;;;;;;1.55;0.65;;;8.80;99.90;;;;;;5085935;28;20422;-67
2023/10/28 01:35:50;;;;;;;1.45;1.10;;;8.80;99.90;;;;;;5079281;27;20040;-67
2023/10/28 01:38:17;;;;;;;0.60;0.60;;;8.80;99.90;;;;;;5083726;28;20054;-67
2023/10/28 01:40:42;;;;;;;0.40;0.40;;;8.80;99.90;;;;;;5084902;28;20032;-67
2023/10/28 01:43:08;;;;;;;7.93;0.38;;;8.80;99.90;;;;;;5083973;28;21746;-67
2023/10/28 01:45:34;;;;;;;0.50;0.35;;;8.80;99.90;;;;;;5083219;28;20042;-67
2023/10/28 01:47:59;;;;;;;1.02;0.60;;;8.80;99.90;;;;;;5087008;27;20049;-67
2023/10/28 01:50:25;;;;;;;0.40;0.40;;;8.70;99.90;;;;;;5090494;28;20462;-67
2023/10/28 01:52:50;;;;;;;0.80;0.80;;;8.70;99.90;;;;;;5091111;27;20446;-67
2023/10/28 01:55:16;;;;;;;0.47;0.45;;;8.70;99.90;;;;;;5083973;28;20046;-67
2023/10/28 01:57:42;;;;;;;0.50;0.40;;;8.80;99.90;;;;;;5090321;27;20444;-67
2023/10/28 02:00:12;;;;;;;2.00;1.05;;;8.80;99.90;;;;;;5085391;28;20119;-67
2023/10/28 02:02:38;;;;;;;0.38;0.38;;;8.70;99.90;;;;;;5088068;28;20078;-67
2023/10/28 02:05:04;;;;;;;0.75;0.40;;;8.70;99.90;;;;;;5089013;27;20486;-67
2023/10/28 02:07:32;;;;;;;2.05;0.30;;;8.70;99.90;;;;;;5113080;27;20474;-67
2023/10/28 02:09:58;;;;;;;2.38;0.63;;;8.60;99.90;;;;;;5119084;27;20062;-67
2023/10/28 02:12:24;;;;;;;1.02;0.40;;;8.60;99.90;;;;;;5082473;27;20462;-68
2023/10/28 02:14:50;;;;;;;0.30;0.30;;;8.60;99.90;;;;;;5080344;28;20082;-68
2023/10/28 02:17:16;;;;;;;0.98;0.95;;;8.50;99.90;;;;;;5084553;28;20084;-67
2023/10/28 02:19:42;;;;;;;0.20;0.20;;;8.50;99.90;;;;;;5113534;27;20394;-67
2023/10/28 02:22:10;;;;;;;0.75;0.43;;;8.50;99.90;;;;;;5075215;27;20050;-67
2023/10/28 02:24:36;;;;;;;0.75;0.43;;;8.50;99.90;;;;;;5070183;28;20040;-68
2023/10/28 02:27:02;;;;;;;0.20;0.20;;;8.40;99.90;;;;;;5118232;27;20036;-67
2023/10/28 02:29:27;;;;;;;0.75;0.75;;;8.40;99.90;;;;;;5086329;28;20370;-67
2023/10/28 02:31:53;;;;;;;0.10;0.10;;;8.40;99.90;;;;;;5117947;27;20039;-67
2023/10/28 02:34:18;;;;;;;0.20;0.20;;;8.30;99.90;;;;;;5086170;28;20048;-68
2023/10/28 02:36:46;;;;;;;1.35;0.75;;;8.30;99.90;;;;;;5082112;27;20040;-67
2023/10/28 02:39:12;;;;;;;0.75;0.43;;;8.30;99.90;;;;;;5116697;27;20126;-68
2023/10/28 02:41:38;;;;;;;0.30;0.30;;;8.30;99.90;;;;;;5090025;28;20131;-67
2023/10/28 02:44:04;;;;;;;0.17;0.17;;;8.20;99.90;;;;;;5118637;27;20166;-67
2023/10/28 02:46:30;;;;;;;0.35;0.35;;;8.20;99.90;;;;;;5116216;27;20473;-67
2023/10/28 02:48:56;;;;;;;0.50;0.50;;;8.30;99.90;;;;;;5068077;28;20071;-68
2023/10/28 02:51:22;;;;;;;0.77;0.68;;;8.30;99.90;;;;;;5082612;28;20036;-67
2023/10/28 02:53:47;;;;;;;0.52;0.45;;;8.30;99.90;;;;;;5117497;27;20040;-67
2023/10/28 02:56:13;;;;;;;0.25;0.25;;;8.30;99.90;;;;;;5082981;28;20043;-67
2023/10/28 02:58:39;;;;;;;0.30;0.30;;;8.40;99.90;;;;;;5084428;28;20039;-67
2023/10/28 03:01:09;;;;;;;0.90;0.80;;;8.40;99.90;;;;;;5067840;28;20036;-67
2023/10/28 03:03:39;;;;;;;0.00;0.00;;;8.40;99.90;;;;;;5084878;28;20035;-67
2023/10/28 03:06:06;;;;;;;0.15;0.13;;;8.50;99.90;;;;;;5085623;28;20470;-67
2023/10/28 03:08:31;;;;;;;2.55;0.20;;;8.40;99.90;;;;;;5099108;27;20035;-68
2023/10/28 03:10:57;;;;;;;0.75;0.70;;;8.50;99.90;;;;;;5078648;28;20047;-67
2023/10/28 03:13:23;;;;;;;0.30;0.30;;;8.50;99.90;;;;;;5084394;27;20069;-68
2023/10/28 03:15:49;;;;;;;0.10;0.10;;;8.60;99.90;;;;;;5063380;28;20094;-68
2023/10/28 03:18:15;;;;;;;0.15;0.15;;;8.60;99.90;;;;;;5072487;28;20067;-68
2023/10/28 03:20:41;;;;;;;1.08;0.10;;;8.70;99.90;;;;;;5111414;27;20115;-67
2023/10/28 03:23:07;;;;;;;0.10;0.10;;;8.70;99.90;;;;;;5090809;27;20114;-67
2023/10/28 03:25:32;;;;;;;0.05;0.05;;;8.70;99.90;;;;;;5090352;27;20130;-68
2023/10/28 03:28:01;;;;;;;0.57;0.55;;;8.60;99.90;;;;;;5093430;27;20035;-68
2023/10/28 03:30:27;;;;;;;0.50;0.47;;;8.70;99.90;;;;;;5087833;28;20039;-68
2023/10/28 03:32:53;;;;;;;0.10;0.10;;;8.60;99.90;;;;;;5084682;28;20142;-67
2023/10/28 03:35:18;;;;;;;0.40;0.40;;;8.60;99.90;;;;;;5079132;28;20122;-67
2023/10/28 03:37:44;;;;;;;0.40;0.40;;;8.60;99.90;;;;;;5080660;28;20040;-68
2023/10/28 03:40:10;;;;;;;0.20;0.20;;;8.60;99.90;;;;;;5095796;28;20046;-67
2023/10/28 03:42:36;;;;;;;0.52;0.40;;;8.60;99.90;;;;;;5083538;28;20044;-67
2023/10/28 03:45:09;;;;;;;0.20;0.20;;;8.60;99.90;;;;;;5084273;28;20152;-67
2023/10/28 03:47:34;;;;;;;;;;;8.60;99.90;;;;;;5064626;28;20042;-67
2023/10/28 03:50:00;;;;;;;0.20;0.20;;;8.70;99.90;;;;;;5105596;27;19923;-67
2023/10/28 03:52:26;;;;;;;0.63;0.55;;;8.70;99.90;;;;;;5089082;28;20478;-68
2023/10/28 03:54:52;;;;;;;0.20;0.20;;;8.70;99.90;;;;;;5081723;28;20385;-67
2023/10/28 03:57:18;;;;;;;0.73;0.20;;;8.80;99.90;;;;;;5069249;28;20037;-67
2023/10/28 03:59:46;;;;;;;0.20;0.20;;;8.70;99.90;;;;;;5087087;28;20478;-67
2023/10/28 04:02:11;;;;;;;0.38;0.38;;;8.70;99.90;;;;;;5103574;28;20458;-67
2023/10/28 04:04:37;;;;;;;0.22;0.22;;;8.70;99.90;;;;;;5102722;28;20071;-68
2023/10/28 04:07:03;;;;;;;0.15;0.15;;;8.70;99.90;;;;;;5082135;28;20173;-67
2023/10/28 04:09:28;;;;;;;0.22;0.22;;;8.80;99.90;;;;;;5078296;28;20080;-67
2023/10/28 04:11:54;;;;;;;0.28;0.28;;;8.80;99.90;;;;;;5083555;28;20463;-67
2023/10/28 04:14:19;;;;;;;0.30;0.30;;;8.80;99.90;;;;;;5082459;28;20804;-68
2023/10/28 04:16:45;;;;;;;2.05;1.70;;;8.80;99.90;;;;;;5111179;27;20774;-67
2023/10/28 04:19:11;;;;;;;0.10;0.10;;;8.80;99.90;;;;;;5110963;27;20371;-67
2023/10/28 04:21:37;;;;;;;0.10;0.10;;;8.90;99.90;;;;;;5088837;28;20047;-67
2023/10/28 04:24:03;;;;;;;0.20;0.20;;;8.90;99.90;;;;;;5067702;28;20198;-68
2023/10/28 04:26:29;;;;;;;0.38;0.38;;;8.90;99.90;;;;;;5085143;28;20046;-67
2023/10/28 04:28:59;;;;;;;3.22;0.40;;;8.90;99.90;;;;;;5094301;28;20040;-68
2023/10/28 04:31:28;;;;;;;0.40;0.40;;;9.00;99.90;;;;;;5091204;28;20035;-68
2023/10/28 04:33:53;;;;;;;0.10;0.10;;;9.00;99.90;;;;;;5088941;28;20385;-67
2023/10/28 04:36:19;;;;;;;0.15;0.15;;;9.00;99.90;;;;;;5108924;28;20035;-67
2023/10/28 04:38:44;;;;;;;0.00;0.00;;;8.90;99.90;;;;;;5102443;28;20042;-67
2023/10/28 04:41:10;;;;;;;0.10;0.10;;;8.90;99.90;;;;;;5083646;28;20043;-67
2023/10/28 04:43:36;;;;;;;0.65;0.20;;;8.90;99.90;;;;;;5089197;28;20036;-67
2023/10/28 04:46:01;;;;;;;0.00;0.00;;;9.00;99.90;;;;;;5090610;28;20129;-68
2023/10/28 04:48:29;;;;;;;1.33;0.43;;;9.00;99.90;;;;;;5091566;28;20035;-67
2023/10/28 04:50:56;;;;;;;0.17;0.17;;;9.00;99.90;;;;;;5093401;27;20045;-67
2023/10/28 04:53:24;;;;;;;0.10;0.10;;;9.00;99.90;;;;;;5075304;27;20036;-67
2023/10/28 04:55:50;;;;;;;0.75;0.70;;;9.00;99.90;;;;;;5086462;27;20047;-67
2023/10/28 04:58:16;;;;;;;0.10;0.10;;;9.00;99.90;;;;;;5091727;27;20032;-67
2023/10/28 05:00:41;;;;;;;0.00;0.00;;;9.00;99.90;;;;;;5102445;27;20036;-68
2023/10/28 05:03:07;;;;;;;0.10;0.10;;;9.10;99.90;;;;;;5103255;27;20055;-67
2023/10/28 05:05:33;;;;;;;0.10;0.10;;;9.10;99.90;;;;;;5091633;28;20044;-67
2023/10/28 05:07:59;;;;;;;0.55;0.55;;;9.10;99.90;;;;;;5089869;27;20118;-67
2023/10/28 05:10:24;;;;;;;0.57;0.57;;;9.10;99.90;;;;;;5100500;28;20036;-67
2023/10/28 05:12:50;;;;;;;0.10;0.10;;;9.20;99.90;;;;;;5098742;27;20039;-67
2023/10/28 05:15:15;;;;;;;0.20;0.20;;;9.20;99.90;;;;;;5087327;28;20093;-67
2023/10/28 05:17:41;;;;;;;1.65;0.70;;;9.30;99.90;;;;;;5076695;28;20429;-67
2023/10/28 05:20:08;;;;;;;3.03;0.63;;;9.30;99.90;;;;;;5078946;28;20041;-67
2023/10/28 05:22:38;;;;;;;0.65;0.52;;;9.40;99.90;;;;;;5111542;27;20032;-67
2023/10/28 05:25:07;;;;;;;1.30;0.85;;;9.40;99.90;;;;;;5075240;28;20048;-67
2023/10/28 05:27:32;;;;;;;0.55;0.55;;;9.50;99.90;;;;;;5117748;27;20055;-67
2023/10/28 05:29:59;;;;;;;1.13;0.52;;;9.50;99.90;;;;;;5086913;28;20109;-67
2023/10/28 05:32:25;;;;;;;0.22;0.20;;;9.50;99.90;;;;;;5096620;28;20035;-67
2023/10/28 05:34:50;;;;;;;0.63;0.63;;;9.50;99.90;;;;;;5100425;27;20042;-67
2023/10/28 05:37:16;;;;;;;0.88;0.60;;;9.60;99.90;;;;;;5092211;28;20672;-67
2023/10/28 05:39:42;;;;;;;0.10;0.10;;;9.60;99.90;;;;;;5124191;27;20092;-67
2023/10/28 05:42:08;;;;;;;0.28;0.28;;;9.60;99.90;;;;;;5087798;28;20078;-67
2023/10/28 05:44:35;;;;;;;0.17;0.17;;;9.60;99.90;;;;;;5091008;28;20398;-67
2023/10/28 05:47:01;;;;;;;1.60;0.50;;;9.60;99.90;;;;;;5091425;28;20158;-67
2023/10/28 05:49:27;;;;;;;0.20;0.20;;;9.60;99.90;;;;;;5071310;28;20115;-67
2023/10/28 05:51:54;;;;;;;0.38;0.38;;;9.50;99.90;;;;;;5087449;28;20054;-67
2023/10/28 05:54:20;;;;;;;0.28;0.28;;;9.50;99.90;;;;;;5114347;27;20036;-67
2023/10/28 05:56:45;;;;;;;0.70;0.30;;;9.50;99.90;;;;;;5085680;28;20085;-67
2023/10/28 05:59:11;;;;;;;2.47;0.57;;;9.50;99.90;;;;;;5084028;28;20040;-68
2023/10/28 06:01:37;;;;;;;2.20;0.73;;;9.50;99.90;;;;;;5074280;28;20160;-68
2023/10/28 06:04:04;;;;;;;0.63;0.40;;;9.40;99.90;;;;;;5123978;27;20048;-67
2023/10/28 06:06:29;;;;;;;0.47;0.20;;;9.40;99.90;;;;;;5089236;28;20069;-67
2023/10/28 06:08:57;;;;;;;0.88;0.45;;;9.40;99.90;;;;;;5089413;28;20036;-67
2023/10/28 06:11:23;;;;;;;0.85;0.50;;;9.40;99.90;;;;;;5119008;27;20042;-68
2023/10/28 06:13:49;;;;;;;0.25;0.25;;;9.40;99.90;;;;;;5089044;28;20078;-67
2023/10/28 06:16:14;;;;;;;1.00;0.20;;;9.40;99.90;;;;;;5079954;28;20075;-67
2023/10/28 06:18:40;;;;;;;0.50;0.50;;;9.40;99.90;;;;;;5122421;27;20050;-67
2023/10/28 06:21:06;;;;;;;0.25;0.15;;;9.40;99.90;;;;;;5107593;27;20123;-67
2023/10/28 06:23:32;;;;;;;0.55;0.32;;;9.40;99.90;;;;;;5088426;27;20043;-68
2023/10/28 06:25:57;;;;;;;0.35;0.28;;;9.50;99.90;;;;;;5093913;27;20043;-67
2023/10/28 06:28:23;;;;;;;0.10;0.10;;;9.50;99.90;;;;;;5077190;28;20489;-67
2023/10/28 06:30:49;;;;;;;0.38;0.38;;;9.50;99.90;;;;;;5090095;27;20031;-67
2023/10/28 06:33:18;;;;;;;0.13;0.10;;;9.50;99.90;;;;;;5103597;27;20043;-68
2023/10/28 06:35:46;;;;;;;0.10;0.10;;;9.50;99.90;;;;;;5098853;27;20442;-67
2023/10/28 06:38:12;;;;;;;0.22;0.20;;;9.50;99.90;;;;;;5095101;28;20436;-67
2023/10/28 06:40:37;;;;;;;0.80;0.43;;;9.50;99.90;;;;;;5107780;28;20092;-67
2023/10/28 06:43:03;;;;;;;0.38;0.38;;;9.50;99.90;;;;;;5092292;28;20128;-67
2023/10/28 06:45:29;;;;;;;0.15;0.15;;;9.50;99.90;;;;;;5107827;27;20177;-67
2023/10/28 06:47:55;;;;;;;1.05;0.95;;;9.50;99.90;;;;;;5119039;27;20483;-67
2023/10/28 06:50:21;;;;;;;0.43;0.32;;;9.50;99.90;;;;;;5091470;28;20085;-67
2023/10/28 06:52:50;;;;;;;0.32;0.32;;;9.50;99.90;;;;;;5088450;28;20032;-67
2023/10/28 06:55:17;;;;;;;1.15;0.73;;;9.60;99.90;;;;;;5092016;28;20035;-67
2023/10/28 06:57:44;;;;;;;0.10;0.10;;;9.60;99.90;;;;;;5080013;28;20098;-67
2023/10/28 07:00:13;;;;;;;0.28;0.20;;;9.60;99.90;;;;;;5073449;28;20040;-67
2023/10/28 07:02:43;;;;;;;0.35;0.35;;;9.60;99.90;;;;;;5075646;27;20515;-67
2023/10/28 07:05:09;;;;;;;0.15;0.15;;;9.60;99.90;;;;;;5090716;28;20044;-67
2023/10/28 07:07:36;;;;;;;0.50;0.50;;;9.50;99.90;;;;;;5113976;27;20035;-67
2023/10/28 07:10:01;;;;;;;1.10;0.77;;;9.40;99.90;;;;;;5092350;28;20482;-69
2023/10/28 07:12:28;;;;;;;0.30;0.30;;;9.40;99.90;;;;;;5084535;28;20035;-68
2023/10/28 07:14:54;;;;;;;1.08;0.25;;;9.40;99.90;;;;;;5094537;28;20040;-68
2023/10/28 07:17:22;;;;;;;0.15;0.15;;;9.30;99.90;;;;;;5099304;28;20130;-68
2023/10/28 07:19:52;;;;;;;0.17;0.17;;;9.30;99.90;;;;;;5080415;28;20891;-69
2023/10/28 07:22:19;;;;;;;0.50;0.30;;;9.30;99.90;;;;;;5095349;27;20387;-69
2023/10/28 07:24:48;;;;;;;0.10;0.10;;;9.30;99.90;;;;;;5089100;28;20530;-69
2023/10/28 07:27:14;;;;;;;2.08;0.32;;;9.30;99.90;;;;;;5091320;27;20411;-69
2023/10/28 07:29:40;;;;;;;0.70;0.70;;;9.40;99.90;;;;;;5097115;28;20108;-69
2023/10/28 07:32:06;;;;;;;0.10;0.10;;;9.40;99.90;;;;;;5083524;28;20466;-69
2023/10/28 07:34:32;;;;;;;0.10;0.10;;;9.50;99.90;;;;;;5082597;28;20047;-69
2023/10/28 07:37:03;;;;;;;0.10;0.10;;;9.50;99.90;;;;;;5086718;27;20507;-68
2023/10/28 07:39:29;;;;;;;0.10;0.10;;;9.60;99.90;;;;;;5097252;28;20071;-68
2023/10/28 07:41:55;;;;;;;0.60;0.55;;;9.60;99.90;;;;;;5084711;28;20048;-70
2023/10/28 07:44:21;;;;;;;0.32;0.20;;;9.70;99.90;;;;;;5091698;28;20046;-71
2023/10/28 07:46:46;;;;;;;0.20;0.20;;;9.70;99.90;;;;;;5091730;28;20428;-68
2023/10/28 07:49:12;;;;;;;0.10;0.10;;;9.80;99.90;;;;;;5085621;28;20363;-68
2023/10/28 07:51:39;;;;;;;0.10;0.10;;;9.80;99.90;;;;;;5094406;28;20083;-67
2023/10/28 07:54:05;;;;;;;0.57;0.57;;;9.90;99.90;;;;;;5108809;28;20068;-67
2023/10/28 07:56:32;;;;;;;0.75;0.40;;;9.90;99.90;;;;;;5080346;28;20081;-67
2023/10/28 07:58:59;;;;;;;0.10;0.10;;;10.00;99.90;;;;;;5090765;28;20050;-67
2023/10/28 08:01:31;;;;;;;0.47;0.47;;;10.00;99.90;;;;;;5085618;28;20043;-67
2023/10/28 08:03:57;;;;;;;0.20;0.20;;;10.10;99.90;;;;;;5088974;28;20048;-67
2023/10/28 08:06:23;;;;;;;0.10;0.10;;;10.20;99.90;;;;;;5120944;28;20035;-67
2023/10/28 08:08:49;;;;;;;0.20;0.20;;;10.20;99.90;;;;;;5082933;28;20028;-67
2023/10/28 08:11:18;;;;;;;0.50;0.50;;;10.30;99.90;;;;;;5094016;28;20287;-68
2023/10/28 08:13:43;;;;;;;0.40;0.30;;;10.30;99.90;;;;;;5094372;28;20043;-68
2023/10/28 08:16:09;;;;;;;0.43;0.43;;;10.40;99.90;;;;;;5107139;28;20578;-67
2023/10/28 08:18:40;;;;;;;0.45;0.40;;;10.40;99.90;;;;;;5090276;28;20062;-68
2023/10/28 08:21:07;;;;;;;0.35;0.32;;;10.50;99.90;;;;;;5118955;28;20721;-67
2023/10/28 08:23:32;;;;;;;0.00;0.00;;;10.50;99.90;;;;;;5077192;28;20146;-67
2023/10/28 08:25:58;;;;;;;1.08;0.40;;;10.60;99.90;;;;;;5086918;27;20114;-68
2023/10/28 08:28:26;;;;;;;0.75;0.45;;;10.70;99.90;;;;;;5096996;27;20405;-67
2023/10/28 08:30:52;;;;;;;0.10;0.10;;;10.70;99.90;;;;;;5115368;27;20067;-67
2023/10/28 08:33:20;;;;;;;0.75;0.30;;;10.70;99.90;;;;;;5121738;27;20074;-67
2023/10/28 08:35:47;;;;;;;0.10;0.10;;;10.80;99.90;;;;;;5094757;28;20058;-67
2023/10/28 08:38:12;;;;;;;0.60;0.57;;;10.80;99.90;;;;;;5087913;28;20036;-68
2023/10/28 08:40:44;;;;;;;1.75;0.20;;;10.80;99.90;;;;;;5086837;27;20038;-67
2023/10/28 08:43:10;;;;;;;0.20;0.10;;;10.90;99.90;;;;;;5089183;28;20032;-67
2023/10/28 08:45:36;;;;;;;0.10;0.10;;;10.90;99.90;;;;;;5076524;27;20049;-68
2023/10/28 08:48:02;;;;;;;0.28;0.17;;;11.00;99.90;;;;;;5090110;27;20543;-68
2023/10/28 08:50:27;;;;;;;0.17;0.17;;;11.00;99.90;;;;;;5096451;27;20043;-68
2023/10/28 08:53:00;;;;;;;0.60;0.60;;;11.10;99.90;;;;;;5097387;27;20027;-67
2023/10/28 08:55:25;;;;;;;0.10;0.10;;;11.10;99.90;;;;;;5087320;28;20037;-68
2023/10/28 08:57:52;;;;;;;0.65;0.20;;;11.20;99.90;;;;;;5092295;28;20043;-68
2023/10/28 09:00:20;;;;;;;0.00;0.00;;;11.20;99.90;;;;;;5105112;27;20053;-68
2023/10/28 09:02:49;;;;;;;0.30;0.30;;;11.40;99.90;;;;;;5087309;28;20494;-68
2023/10/28 09:05:15;;;;;;;1.58;0.32;;;11.50;99.90;;;;;;5118098;27;20047;-69
2023/10/28 09:07:41;;;;;;;3.00;0.85;;;11.50;99.90;;;;;;5091295;27;20541;-69
2023/10/28 09:10:07;;;;;;;4.15;0.75;;;11.60;99.90;;;;;;5102637;27;20032;-69
2023/10/28 09:12:32;;;;;;;0.20;0.20;;;11.70;99.90;;;;;;5087624;27;20460;-68
2023/10/28 09:14:59;;;;;;;0.20;0.20;;;11.80;99.90;;;;;;5088981;27;20126;-67
2023/10/28 09:17:24;;;;;;;0.52;0.25;;;11.90;99.90;;;;;;5111794;27;20046;-68
2023/10/28 09:19:53;;;;;;;0.20;0.20;;;11.90;99.90;;;;;;5092695;27;20130;-68
2023/10/28 09:22:20;;;;;;;0.28;0.28;;;11.90;99.90;;;;;;5087570;27;20124;-67
2023/10/28 09:24:46;;;;;;;1.58;0.55;;;12.00;99.90;;;;;;5111231;27;20136;-68
2023/10/28 09:27:13;;;;;;;0.43;0.35;;;11.90;99.90;;;;;;5091718;27;20032;-67
2023/10/28 09:29:41;;;;;;;0.20;0.20;;;11.90;99.90;;;;;;5092719;27;20069;-67
2023/10/28 09:32:09;;;;;;;0.65;0.50;;;11.80;99.90;;;;;;5085880;27;20118;-68
2023/10/28 09:34:38;;;;;;;2.28;0.75;;;11.80;99.90;;;;;;5083074;28;20040;-68
2023/10/28 09:37:05;;;;;;;0.65;0.20;;;11.80;99.90;;;;;;5089672;28;20130;-69
2023/10/28 09:39:37;;;;;;;0.35;0.35;;;11.90;99.90;;;;;;5087050;28;20500;-67
2023/10/28 09:42:03;;;;;;;0.52;0.32;;;11.90;99.90;;;;;;5083410;28;20484;-69
2023/10/28 09:44:30;;;;;;;0.45;0.45;;;11.90;99.90;;;;;;5093792;28;20085;-69
2023/10/28 09:47:03;;;;;;;0.17;0.17;;;11.90;99.90;;;;;;5087765;28;20078;-69
2023/10/28 09:49:30;;;;;;;0.17;0.17;;;11.90;99.90;;;;;;5086892;27;20097;-68
2023/10/28 09:52:12;;;;;;;0.10;0.10;;;11.90;99.90;;;;;;5112194;27;20035;-68
2023/10/28 09:54:41;;;;;;;0.57;0.50;;;11.80;99.90;;;;;;5102658;27;20039;-68
2023/10/28 09:57:10;;;;;;;2.28;0.98;;;11.80;99.90;;;;;;5088999;27;20544;-67
2023/10/28 09:59:39;;;;;;;0.15;0.15;;;11.80;99.90;;;;;;5088033;28;20071;-68
2023/10/28 10:02:33;;;;;;;0.25;0.25;;;11.70;99.90;;;;;;5081239;28;20039;-68
2023/10/28 10:05:05;;;;;;;0.45;0.43;;;11.70;99.90;;;;;;5098246;27;20127;-67
2023/10/28 10:07:32;;;;;;;0.57;0.57;;;11.70;99.90;;;;;;5085127;27;20066;-67
2023/10/28 10:10:16;;;;;;;0.25;0.20;;;11.80;99.90;;;;;;5095465;27;20112;-68
2023/10/28 10:12:42;;;;;;;0.95;0.57;;;11.80;99.90;;;;;;5106717;27;20044;-68
2023/10/28 10:15:13;;;;;;;0.63;0.63;;;11.80;99.90;;;;;;5103291;27;20039;-68
2023/10/28 10:17:50;;;;;;;0.20;0.20;;;12.00;99.90;;;;;;5088436;28;20394;-67
2023/10/28 10:20:26;;;;;;;0.20;0.20;;;12.10;99.90;;;;;;5091568;27;20031;-68
2023/10/28 10:22:59;;;;;;;0.32;0.32;;;12.20;99.90;;;;;;5082272;28;20070;-68
2023/10/28 10:25:31;;;;;;;0.45;0.22;;;12.40;99.90;;;;;;5115263;27;20520;-68
2023/10/28 10:28:09;;;;;;;4.55;1.20;;;12.60;99.90;;;;;;5089689;27;20095;-68
2023/10/28 10:30:35;;;;;;;0.17;0.17;;;12.70;99.90;;;;;;5091393;28;20036;-67
2023/10/28 10:33:01;;;;;;;0.35;0.35;;;12.70;99.90;;;;;;5081776;27;20034;-67
2023/10/28 10:35:32;;;;;;;0.10;0.10;;;12.70;99.90;;;;;;5114547;27;20073;-68
2023/10/28 10:38:09;;;;;;;0.40;0.40;;;12.70;99.90;;;;;;5083321;28;20047;-68
2023/10/28 10:40:48;;;;;;;0.10;0.10;;;12.70;99.90;;;;;;5117549;27;20084;-67
2023/10/28 10:43:21;;;;;;;0.20;0.20;;;12.70;99.90;;;;;;5108335;27;20461;-67
2023/10/28 10:45:51;;;;;;;0.10;0.10;;;12.80;99.90;;;;;;5086210;28;20126;-67
2023/10/28 10:48:17;;;;;;;1.30;0.85;;;12.70;99.90;;;;;;5082259;28;20045;-67
2023/10/28 10:50:43;;;;;;;0.47;0.20;;;12.70;99.90;;;;;;5084419;27;20039;-69
2023/10/28 10:53:09;;;;;;;0.20;0.20;;;12.70;99.90;;;;;;5096004;28;20404;-68
2023/10/28 10:55:35;;;;;;;2.08;0.20;;;12.80;99.90;;;;;;5091403;28;20050;-68
2023/10/28 10:58:01;;;;;;;1.05;0.38;;;12.80;99.90;;;;;;5091764;28;20435;-67
2023/10/28 11:00:27;;;;;;;1.30;0.60;;;12.80;99.90;;;;;;5089274;28;20490;-68
2023/10/28 11:03:03;;;;;;;1.48;0.32;;;12.80;99.90;;;;;;5094213;28;20039;-68
2023/10/28 11:05:30;;;;;;;1.17;0.63;;;12.80;99.90;;;;;;5093054;28;20036;-67
2023/10/28 11:07:56;;;;;;;0.65;0.55;;;12.80;99.90;;;;;;5092330;28;20050;-68
2023/10/28 11:10:23;;;;;;;0.30;0.30;;;12.80;99.90;;;;;;5096139;28;20032;-68
2023/10/28 11:12:49;;;;;;;1.13;1.08;;;12.80;99.90;;;;;;5098841;28;20027;-67
2023/10/28 11:15:15;;;;;;;0.90;0.20;;;12.80;99.90;;;;;;5094424;28;20051;-66
2023/10/28 11:17:41;;;;;;;0.25;0.25;;;12.90;99.90;;;;;;5091386;28;20047;-68
2023/10/28 11:20:09;;;;;;;0.20;0.20;;;12.90;99.90;;;;;;5094145;28;20501;-67
2023/10/28 11:22:39;;;;;;;0.13;0.13;;;12.90;99.90;;;;;;5078518;28;20053;-68
2023/10/28 11:25:07;;;;;;;0.20;0.20;;;12.90;99.90;;;;;;5076424;28;20066;-68
2023/10/28 11:27:32;;;;;;;0.40;0.30;;;13.00;99.90;;;;;;5091498;27;20038;-69
2023/10/28 11:29:58;;;;;;;0.10;0.10;;;13.00;99.90;;;;;;5094050;27;20186;-68
2023/10/28 11:32:27;;;;;;;0.70;0.35;;;13.10;99.90;;;;;;5082360;28;20050;-68
2023/10/28 11:34:55;;;;;;;0.38;0.38;;;13.10;99.90;;;;;;5084979;28;20039;-68
2023/10/28 11:37:22;;;;;;;2.65;0.20;;;13.10;99.90;;;;;;5089417;28;20405;-67
2023/10/28 11:39:48;;;;;;;0.68;0.68;;;13.10;99.90;;;;;;5082366;28;20081;-67
2023/10/28 11:42:18;;;;;;;0.28;0.28;;;13.10;99.90;;;;;;5116219;27;20044;-67
2023/10/28 11:44:51;;;;;;;0.28;0.20;;;13.10;99.90;;;;;;5085455;28;20039;-66
2023/10/28 11:47:19;;;;;;;0.13;0.13;;;13.20;99.90;;;;;;5108887;27;20547;-66
2023/10/28 11:49:46;;;;;;;0.28;0.28;;;13.20;99.90;;;;;;5114310;27;20442;-66
2023/10/28 11:52:12;;;;;;;0.40;0.40;;;13.20;99.90;;;;;;5086618;28;20054;-67
2023/10/28 11:54:41;;;;;;;0.20;0.20;;;13.30;99.90;;;;;;5080171;28;20032;-67
2023/10/28 11:57:08;;;;;;;0.20;0.20;;;13.30;99.90;;;;;;5085372;28;20039;-66
2023/10/28 11:59:34;;;;;;;0.30;0.20;;;13.30;99.90;;;;;;5078048;28;20160;-69
2023/10/28 12:01:59;;;;;;;1.45;0.25;;;13.30;99.90;;;;;;5115194;27;20507;-67
2023/10/28 12:04:25;;;;;;;0.20;0.10;;;13.20;99.90;;;;;;5082590;28;20040;-67
2023/10/28 12:06:51;;;;;;;0.20;0.20;;;13.20;99.90;;;;;;5088320;28;20154;-67
2023/10/28 12:09:17;;;;;;;0.20;0.20;;;13.10;99.90;;;;;;5081930;28;20063;-67
2023/10/28 12:11:43;;;;;;;0.10;0.10;;;13.10;99.90;;;;;;5083662;28;20090;-67
2023/10/28 12:14:10;;;;;;;0.22;0.22;;;13.10;99.90;;;;;;5079871;28;20045;-67
2023/10/28 12:16:39;;;;;;;0.65;0.65;;;13.20;99.90;;;;;;5085837;28;20485;-70
2023/10/28 12:19:08;;;;;;;0.40;0.40;;;13.30;99.90;;;;;;5085238;28;20364;-67
2023/10/28 12:21:35;;;;;;;0.13;0.13;;;13.40;99.90;;;;;;5115032;28;20039;-68
2023/10/28 12:24:03;;;;;;;0.10;0.10;;;13.50;99.90;;;;;;5079272;28;20303;-68
2023/10/28 12:26:28;;;;;;;0.20;0.20;;;13.50;99.90;;;;;;5082669;28;20040;-68
2023/10/28 12:28:54;;;;;;;0.15;0.15;;;13.60;99.90;;;;;;5066225;28;20402;-66
2023/10/28 12:31:24;;;;;;;0.40;0.30;;;13.70;99.90;;;;;;5077937;28;20032;-67
2023/10/28 12:33:50;;;;;;;0.10;0.10;;;13.70;99.90;;;;;;5088887;28;20039;-67
2023/10/28 12:36:19;;;;;;;0.45;0.25;;;13.70;99.90;;;;;;5061205;28;20067;-67
2023/10/28 12:38:45;;;;;;;0.13;0.13;;;13.70;99.90;;;;;;5098786;28;20043;-66
2023/10/28 12:41:14;;;;;;;0.13;0.13;;;13.70;99.90;;;;;;5066708;28;20058;-67
2023/10/28 12:43:41;;;;;;;0.40;0.40;;;13.70;99.90;;;;;;5084941;28;20092;-67
2023/10/28 12:46:07;;;;;;;0.93;0.22;;;13.70;99.90;;;;;;5078415;28;20455;-67
2023/10/28 12:48:36;;;;;;;0.30;0.30;;;13.70;99.90;;;;;;5081042;28;20157;-66
2023/10/28 12:51:01;;;;;;;0.25;0.20;;;13.70;99.90;;;;;;5084077;28;20035;-67